Time;durP1;ratioP1;P1;durP2;ratioP2;P2;SDS_P1;SDS_P2;PMS_P1;PMS_P2;Temp;Humidity;BMP_temperature;BMP_pressure;BME280_temperature;BME280_humidity;BME280_pressure;Samples;Min_cycle;Max_cycle;Signal;HPM_P1;HPM_P2
2022/06/30 00:02:17;;;;;;;12.80;11.50;;;;;;;21.74;67.98;99978.23;106967;1280;138511;-72
2022/06/30 00:04:49;;;;;;;12.50;11.30;;;;;;;21.69;68.05;99974.30;107060;1281;109183;-71
2022/06/30 00:07:22;;;;;;;13.40;11.90;;;;;;;21.67;68.35;99975.40;105902;1281;139089;-70
2022/06/30 00:09:54;;;;;;;13.60;12.20;;;;;;;21.65;68.25;99973.85;106900;1281;97628;-71
2022/06/30 00:12:27;;;;;;;13.90;11.90;;;;;;;21.61;68.58;99968.80;107056;1280;95752;-70
2022/06/30 00:14:59;;;;;;;13.80;12.20;;;;;;;21.60;68.61;99965.05;106996;1280;138377;-71
2022/06/30 00:17:32;;;;;;;14.60;12.90;;;;;;;21.58;68.73;99962.02;107091;1280;107887;-71
2022/06/30 00:20:06;;;;;;;13.90;12.60;;;;;;;21.56;68.80;99960.96;106946;1280;140323;-71
2022/06/30 00:22:40;;;;;;;12.90;11.60;;;;;;;21.53;69.18;99963.67;105782;1281;97977;-72
2022/06/30 00:25:13;;;;;;;15.10;12.30;;;;;;;21.48;69.10;99963.14;106967;1281;138868;-71
2022/06/30 00:27:46;;;;;;;13.50;12.20;;;;;;;21.48;69.34;99968.89;106907;1281;112533;-71
2022/06/30 00:30:18;;;;;;;14.10;12.60;;;;;;;21.48;69.42;99959.48;105952;1281;108824;-71
2022/06/30 00:32:51;;;;;;;15.10;12.20;;;;;;;21.47;69.54;99958.27;106770;1280;140570;-71
2022/06/30 00:35:23;;;;;;;15.70;13.00;;;;;;;21.49;69.63;99953.92;106140;1281;97889;-71
2022/06/30 00:37:56;;;;;;;16.40;12.80;;;;;;;21.48;69.61;99950.41;106867;1281;138519;-71
2022/06/30 00:40:28;;;;;;;15.30;12.50;;;;;;;21.49;69.73;99956.23;107077;1280;112513;-71
2022/06/30 00:43:00;;;;;;;14.10;12.70;;;;;;;21.47;69.70;99949.33;106055;1281;139172;-70
2022/06/30 00:45:33;;;;;;;15.50;12.90;;;;;;;21.45;69.86;99947.73;105718;1280;108410;-70
2022/06/30 00:48:06;;;;;;;14.20;12.60;;;;;;;21.43;69.85;99942.18;107062;1281;96914;-71
2022/06/30 00:50:39;;;;;;;14.70;13.00;;;;;;;21.40;70.04;99938.56;106819;1280;138538;-71
2022/06/30 00:53:14;;;;;;;14.80;13.30;;;;;;;21.39;70.14;99936.90;106735;1281;110087;-71
2022/06/30 00:55:47;;;;;;;14.00;12.50;;;;;;;21.36;70.18;99938.40;106978;1281;139043;-71
2022/06/30 00:58:21;;;;;;;13.20;11.80;;;;;;;21.34;70.19;99937.64;107056;1280;108773;-71
2022/06/30 01:00:53;;;;;;;14.20;12.50;;;;;;;21.36;70.38;99932.55;106927;1280;139244;-71
2022/06/30 01:03:27;;;;;;;15.20;12.30;;;;;;;21.34;70.38;99933.90;106926;1281;96034;-70
2022/06/30 01:06:00;;;;;;;13.50;12.10;;;;;;;21.32;70.37;99943.61;107074;1280;112595;-71
2022/06/30 01:08:34;;;;;;;14.30;11.50;;;;;;;21.33;70.46;99940.18;106980;1280;139688;-71
2022/06/30 01:13:56;;;;;;;14.20;12.10;;;;;;;21.31;70.56;99941.73;106939;1281;139249;-71
2022/06/30 01:16:28;;;;;;;13.50;12.10;;;;;;;21.31;70.69;99937.17;106237;1281;95882;-72
2022/06/30 01:19:06;;;;;;;14.30;11.70;;;;;;;21.30;70.57;99936.41;106941;1281;140343;-71
2022/06/30 01:22:29;;;;;;;13.90;11.70;;;;;;;21.30;70.78;99936.89;107013;1280;107748;-71
2022/06/30 01:25:02;;;;;;;12.80;11.00;;;;;;;21.28;70.81;99932.06;106634;1280;139694;-71
2022/06/30 01:27:34;;;;;;;14.20;12.50;;;;;;;21.30;70.87;99931.05;106970;1280;96101;-72
2022/06/30 01:30:08;;;;;;;16.00;12.70;;;;;;;21.31;70.78;99934.18;106903;1281;95931;-71
2022/06/30 01:32:40;;;;;;;13.40;12.00;;;;;;;21.29;70.95;99938.36;106973;1281;138558;-71
2022/06/30 01:35:14;;;;;;;15.90;12.50;;;;;;;21.28;70.93;99935.98;107036;1280;108858;-71
2022/06/30 01:37:49;;;;;;;12.50;11.30;;;;;;;21.24;70.96;99928.87;106877;1281;138860;-72
2022/06/30 01:40:23;;;;;;;12.80;11.40;;;;;;;21.23;71.01;99925.45;106246;1279;98000;-71
2022/06/30 01:42:56;;;;;;;13.00;11.70;;;;;;;21.25;71.17;99921.78;106855;1281;138663;-71
2022/06/30 01:45:28;;;;;;;13.20;11.20;;;;;;;21.27;71.21;99918.80;105927;1281;112328;-71
2022/06/30 01:48:01;;;;;;;12.80;11.50;;;;;;;21.28;71.23;99919.39;107021;1280;108852;-72
2022/06/30 01:50:34;;;;;;;13.30;11.80;;;;;;;21.28;71.31;99917.41;106903;1280;139787;-72
2022/06/30 01:53:06;;;;;;;13.10;11.70;;;;;;;21.30;71.29;99921.53;106114;1281;97851;-72
2022/06/30 01:55:39;;;;;;;13.50;12.10;;;;;;;21.29;71.14;99915.77;106912;1280;140216;-72
2022/06/30 01:58:11;;;;;;;13.10;11.90;;;;;;;21.28;71.44;99917.13;107027;1281;112466;-72
2022/06/30 02:00:44;;;;;;;13.50;12.10;;;;;;;21.27;71.33;99912.23;106924;1280;139022;-72
2022/06/30 02:03:16;;;;;;;13.80;12.30;;;;;;;21.27;71.39;99912.23;107012;1280;109149;-72
2022/06/30 02:05:49;;;;;;;14.20;12.70;;;;;;;21.26;71.55;99910.86;106908;1281;96105;-72
2022/06/30 02:08:21;;;;;;;13.70;12.20;;;;;;;21.24;71.59;99918.08;106466;1281;139128;-72
2022/06/30 02:10:54;;;;;;;14.00;12.30;;;;;;;21.25;71.53;99916.63;106866;1281;111554;-72
2022/06/30 02:13:27;;;;;;;15.70;11.80;;;;;;;21.22;71.57;99912.23;106906;1281;139797;-72
2022/06/30 02:15:59;;;;;;;13.30;12.00;;;;;;;21.19;71.56;99915.34;106213;1280;108899;-72
2022/06/30 02:18:31;;;;;;;14.00;12.50;;;;;;;21.17;71.73;99919.91;106999;1281;96367;-72
2022/06/30 02:21:04;;;;;;;13.00;11.60;;;;;;;21.14;71.76;99913.55;106905;1280;138498;-72
2022/06/30 02:23:36;;;;;;;15.30;13.70;;;;;;;21.12;71.92;99908.05;107010;1280;111278;-72
2022/06/30 02:26:09;;;;;;;14.90;13.20;;;;;;;21.12;72.05;99902.77;106818;1281;138893;-71
2022/06/30 02:28:41;;;;;;;14.20;12.70;;;;;;;21.11;71.99;99900.52;107003;1280;107305;-71
2022/06/30 02:31:13;;;;;;;15.20;13.70;;;;;;;21.13;72.07;99903.72;106885;1281;139018;-70
2022/06/30 02:33:46;;;;;;;13.00;11.80;;;;;;;21.15;72.05;99905.54;106749;1281;97644;-69
2022/06/30 02:36:20;;;;;;;13.70;12.20;;;;;;;21.13;72.02;99904.45;106219;1280;112379;-72
2022/06/30 02:38:52;;;;;;;13.70;12.40;;;;;;;21.15;72.16;99906.60;106060;1281;138767;-71
2022/06/30 02:41:26;;;;;;;14.90;11.80;;;;;;;21.16;71.97;99905.86;105729;1281;109127;-71
2022/06/30 02:43:59;;;;;;;15.30;12.10;;;;;;;21.17;72.30;99907.13;106841;1280;139655;-70
2022/06/30 02:46:32;;;;;;;13.30;11.90;;;;;;;21.21;72.17;99906.68;106950;1280;96021;-70
2022/06/30 02:49:04;;;;;;;17.80;13.50;;;;;;;21.24;72.29;99906.98;106940;1281;138945;-70
2022/06/30 02:51:37;;;;;;;15.40;12.50;;;;;;;21.27;72.26;99904.77;107073;1281;108790;-70
2022/06/30 02:54:10;;;;;;;14.10;12.70;;;;;;;21.31;72.13;99912.43;106730;1280;109125;-70
2022/06/30 02:56:43;;;;;;;17.30;13.00;;;;;;;21.34;72.13;99914.83;106922;1280;139360;-70
2022/06/30 02:59:16;;;;;;;16.90;13.20;;;;;;;21.38;72.09;99917.53;106925;1281;95801;-70
2022/06/30 03:01:49;;;;;;;14.00;11.80;;;;;;;21.43;72.03;99915.87;106897;1280;139872;-71
2022/06/30 03:04:22;;;;;;;16.00;12.50;;;;;;;21.45;71.80;99908.27;106998;1281;108986;-70
2022/06/30 03:06:56;;;;;;;13.50;12.20;;;;;;;21.48;71.96;99909.02;106831;1281;140713;-69
2022/06/30 03:09:28;;;;;;;17.30;12.50;;;;;;;21.49;71.74;99911.66;106986;1280;96239;-70
2022/06/30 03:12:00;;;;;;;13.60;11.70;;;;;;;21.49;71.69;99913.56;106949;1281;96122;-71
2022/06/30 03:14:38;;;;;;;16.70;12.30;;;;;;;21.51;71.69;99918.87;106036;1281;139613;-71
2022/06/30 03:17:11;;;;;;;12.90;11.50;;;;;;;21.53;71.66;99924.21;105859;1281;108930;-71
2022/06/30 03:19:43;;;;;;;15.10;12.70;;;;;;;21.55;71.59;99924.77;106897;1280;139477;-71
2022/06/30 03:22:16;;;;;;;13.00;11.60;;;;;;;21.55;71.49;99931.11;107009;1281;96243;-71
2022/06/30 03:24:48;;;;;;;13.90;11.50;;;;;;;21.52;71.33;99933.81;106824;1280;140294;-71
2022/06/30 03:27:21;;;;;;;12.80;11.50;;;;;;;21.54;71.41;99936.36;106968;1280;112777;-71
2022/06/30 03:29:53;;;;;;;17.00;12.50;;;;;;;21.54;71.50;99937.02;105825;1281;109218;-71
2022/06/30 03:32:26;;;;;;;13.60;12.10;;;;;;;21.56;71.33;99932.97;106876;1281;138741;-71
2022/06/30 03:34:58;;;;;;;13.40;12.00;;;;;;;21.60;71.44;99936.16;106877;1281;96450;-71
2022/06/30 03:37:36;;;;;;;13.30;11.90;;;;;;;21.61;71.17;99937.15;106785;1281;139454;-71
2022/06/30 03:40:10;;;;;;;13.00;11.50;;;;;;;21.61;71.29;99935.73;107015;1281;113045;-71
2022/06/30 03:42:42;;;;;;;13.10;11.60;;;;;;;21.65;71.36;99941.30;106890;1280;138544;-71
2022/06/30 03:45:14;;;;;;;12.40;11.20;;;;;;;21.65;71.18;99941.41;106984;1280;109055;-72
2022/06/30 03:47:47;;;;;;;15.30;11.30;;;;;;;21.65;71.13;99942.28;106739;1281;96116;-71
2022/06/30 03:50:19;;;;;;;13.00;11.70;;;;;;;21.67;71.22;99944.62;106260;1281;138934;-71
2022/06/30 03:52:52;;;;;;;12.70;11.40;;;;;;;21.70;71.23;99946.34;105762;1280;112131;-71
2022/06/30 03:55:24;;;;;;;14.20;12.60;;;;;;;21.74;71.13;99942.42;106883;1280;139030;-72
2022/06/30 03:57:57;;;;;;;16.50;12.20;;;;;;;21.80;70.99;99945.65;105961;1281;108186;-71
2022/06/30 04:00:29;;;;;;;14.80;12.90;;;;;;;21.84;70.97;99947.63;106578;1280;96040;-72
2022/06/30 04:03:01;;;;;;;15.20;13.20;;;;;;;21.88;70.89;99942.14;106543;1280;138666;-71
2022/06/30 04:05:34;;;;;;;16.20;12.60;;;;;;;21.93;70.88;99943.19;106994;1280;111498;-71
2022/06/30 04:08:06;;;;;;;15.50;12.50;;;;;;;21.98;70.79;99945.54;106892;1280;139408;-71
2022/06/30 04:10:39;;;;;;;17.10;13.40;;;;;;;22.02;70.49;99942.70;106982;1280;108311;-71
2022/06/30 04:13:11;;;;;;;14.90;13.00;;;;;;;22.06;70.38;99947.39;106785;1280;139521;-71
2022/06/30 04:15:44;;;;;;;14.30;12.20;;;;;;;22.11;70.40;99948.04;106185;1281;97907;-71
2022/06/30 04:18:17;;;;;;;14.20;12.40;;;;;;;22.20;70.32;99947.21;106984;1278;111448;-71
2022/06/30 04:20:49;;;;;;;16.90;12.60;;;;;;;22.32;70.19;99943.42;106286;1280;140784;-71
2022/06/30 04:23:22;;;;;;;15.20;12.80;;;;;;;22.46;69.94;99936.75;106094;1281;107717;-71
2022/06/30 04:25:54;;;;;;;16.50;12.20;;;;;;;22.62;69.57;99943.12;105480;1281;140126;-71
2022/06/30 04:28:27;;;;;;;14.90;11.70;;;;;;;22.77;69.52;99946.41;106585;1280;96570;-71
2022/06/30 04:33:58;;;;;;;12.40;11.10;;;;;;;23.14;68.85;99945.31;106551;1284;108872;-72
2022/06/30 04:36:30;;;;;;;16.90;11.20;;;;;;;23.32;68.62;99942.70;106490;1284;106385;-71
2022/06/30 04:39:03;;;;;;;14.70;11.60;;;;;;;23.51;68.17;99942.64;105339;1284;140948;-71
2022/06/30 04:41:36;;;;;;;16.80;12.00;;;;;;;23.67;67.73;99948.11;105531;1283;97760;-70
2022/06/30 04:44:09;;;;;;;13.30;10.90;;;;;;;23.84;67.34;99953.69;106078;1284;138627;-71
2022/06/30 04:46:41;;;;;;;13.30;11.10;;;;;;;24.01;67.08;99958.41;105345;1284;108664;-71
2022/06/30 04:49:14;;;;;;;13.50;10.50;;;;;;;24.20;66.75;99966.98;106445;1284;139179;-71
2022/06/30 04:51:47;;;;;;;12.90;10.90;;;;;;;24.35;66.20;99962.24;106383;1283;96193;-71
2022/06/30 04:54:19;;;;;;;16.40;12.20;;;;;;;24.44;65.97;99958.25;106450;1284;96275;-71
2022/06/30 04:56:53;;;;;;;13.00;10.40;;;;;;;24.52;65.58;99948.38;106464;1284;139201;-71
2022/06/30 04:59:25;;;;;;;13.20;10.70;;;;;;;24.60;65.59;99946.90;106591;1284;109143;-70
2022/06/30 05:01:58;;;;;;;16.40;11.40;;;;;;;24.72;65.23;99952.48;106475;1284;139382;-70
2022/06/30 05:04:30;;;;;;;13.90;10.90;;;;;;;24.81;64.94;99956.42;106573;1283;96270;-70
2022/06/30 05:07:02;;;;;;;13.80;11.10;;;;;;;24.89;64.53;99956.70;105337;1284;140200;-70
2022/06/30 05:09:35;;;;;;;15.60;11.60;;;;;;;24.98;64.36;99957.30;105428;1284;112556;-70
2022/06/30 05:12:10;;;;;;;13.90;11.20;;;;;;;25.06;64.14;99959.15;105725;1281;108756;-70
2022/06/30 05:14:42;;;;;;;14.10;10.90;;;;;;;25.11;63.66;99968.52;106239;1281;139358;-70
2022/06/30 05:17:15;;;;;;;15.20;12.20;;;;;;;25.12;63.44;99966.24;105682;1280;97839;-69
2022/06/30 05:19:48;;;;;;;14.60;12.30;;;;;;;25.09;63.37;99968.09;106432;1280;138879;-71
2022/06/30 05:22:20;;;;;;;15.30;11.60;;;;;;;25.04;63.40;99967.90;105731;1281;112585;-70
2022/06/30 05:27:39;;;;;;;17.10;11.90;;;;;;;24.93;63.22;99966.28;106116;1286;107786;-70
2022/06/30 05:30:14;;;;;;;17.60;11.60;;;;;;;24.89;63.40;99964.74;105122;1286;97991;-70
2022/06/30 05:32:46;;;;;;;13.40;11.50;;;;;;;24.90;63.48;99968.39;106229;1286;138558;-70
2022/06/30 05:35:19;;;;;;;13.60;11.80;;;;;;;24.91;63.39;99971.83;106399;1286;111496;-69
2022/06/30 05:37:56;;;;;;;13.00;11.70;;;;;;;24.96;63.29;99969.23;106217;1287;139488;-69
2022/06/30 05:40:29;;;;;;;13.00;11.30;;;;;;;25.02;63.36;99965.44;106372;1286;109008;-69
2022/06/30 05:43:01;;;;;;;16.30;12.00;;;;;;;25.11;63.10;99970.10;106257;1285;139472;-72
2022/06/30 05:45:34;;;;;;;14.70;11.30;;;;;;;25.20;63.07;99970.09;105356;1287;97873;-71
2022/06/30 05:48:07;;;;;;;14.70;11.60;;;;;;;25.33;62.97;99969.67;105082;1287;112537;-71
2022/06/30 05:50:40;;;;;;;14.60;11.20;;;;;;;25.50;62.60;99972.10;106300;1286;139763;-69
2022/06/30 05:53:12;;;;;;;14.40;11.60;;;;;;;25.76;62.54;99974.71;106417;1286;108400;-71
2022/06/30 05:55:45;;;;;;;15.80;10.80;;;;;;;26.23;61.83;99974.44;106213;1287;138784;-70
2022/06/30 05:58:19;;;;;;;14.00;11.10;;;;;;;26.64;61.62;99977.52;106434;1286;96149;-71
2022/06/30 06:00:52;;;;;;;15.80;10.90;;;;;;;27.21;60.98;99982.98;106345;1286;138706;-69
2022/06/30 06:03:24;;;;;;;15.50;10.00;;;;;;;28.04;59.87;99985.10;105819;1286;108818;-70
2022/06/30 06:05:57;;;;;;;14.90;11.20;;;;;;;29.12;58.43;99975.78;105447;1281;108753;-71
2022/06/30 06:08:29;;;;;;;12.60;11.40;;;;;;;29.77;55.78;99970.98;105622;1281;138652;-71
2022/06/30 06:11:02;;;;;;;13.20;10.70;;;;;;;30.07;54.49;99967.58;106323;1280;97848;-72
2022/06/30 06:13:34;;;;;;;14.60;9.40;;;;;;;30.27;53.85;99970.80;105649;1281;138081;-71
2022/06/30 06:16:08;;;;;;;15.10;9.70;;;;;;;30.45;53.15;99975.10;105714;1281;109048;-71
2022/06/30 06:18:40;;;;;;;11.90;9.70;;;;;;;30.51;52.75;99965.41;106825;1280;138125;-70
2022/06/30 06:21:14;;;;;;;11.80;10.00;;;;;;;30.78;52.48;99960.23;106947;1281;95789;-72
2022/06/30 06:23:51;;;;;;;13.30;10.00;;;;;;;31.44;51.04;99954.59;106743;1280;97881;-70
2022/06/30 06:26:24;;;;;;;16.90;9.50;;;;;;;31.57;50.29;99957.27;106876;1280;138856;-71
2022/06/30 06:29:09;;;;;;;11.70;9.70;;;;;;;31.30;49.89;99957.07;106608;1280;106885;-70
2022/06/30 06:31:43;;;;;;;10.80;9.70;;;;;;;30.90;49.94;99957.86;105776;1281;138393;-71
2022/06/30 06:34:15;;;;;;;15.30;10.00;;;;;;;30.56;50.38;99957.09;105643;1281;97875;-71
2022/06/30 06:36:49;;;;;;;16.70;10.40;;;;;;;30.26;50.63;99954.85;106873;1279;140746;-69
2022/06/30 06:39:21;;;;;;;14.50;10.70;;;;;;;29.95;50.75;99957.23;106988;1281;111818;-70
2022/06/30 06:41:54;;;;;;;18.80;10.30;;;;;;;29.67;51.21;99964.13;106993;1280;109725;-70
2022/06/30 06:44:26;;;;;;;14.10;11.10;;;;;;;29.46;51.62;99965.88;106849;1281;138078;-70
2022/06/30 06:46:59;;;;;;;16.40;10.50;;;;;;;29.20;51.88;99963.09;106388;1282;96483;-71
2022/06/30 06:49:32;;;;;;;12.70;10.80;;;;;;;28.98;52.35;99954.88;105654;1281;137909;-70
2022/06/30 06:52:05;;;;;;;12.40;11.00;;;;;;;28.87;52.57;99956.65;106984;1281;112615;-70
2022/06/30 06:54:38;;;;;;;16.30;10.60;;;;;;;28.79;52.81;99960.23;106983;1280;109014;-70
2022/06/30 06:57:10;;;;;;;13.30;10.70;;;;;;;28.68;53.12;99970.92;106915;1280;107787;-71
2022/06/30 06:59:42;;;;;;;14.60;10.90;;;;;;;28.59;53.36;99973.61;106892;1280;96178;-71
2022/06/30 07:02:15;;;;;;;13.90;10.80;;;;;;;28.57;53.43;99973.86;106834;1280;137904;-71
2022/06/30 07:04:47;;;;;;;13.10;11.00;;;;;;;28.61;53.48;99971.55;106984;1281;112602;-70
2022/06/30 07:07:20;;;;;;;15.20;11.10;;;;;;;28.73;53.58;99967.73;106051;1281;139820;-70
2022/06/30 07:09:52;;;;;;;13.70;10.70;;;;;;;29.10;53.35;99961.52;106892;1281;106368;-71
2022/06/30 07:12:25;;;;;;;13.20;10.40;;;;;;;29.37;52.80;99958.79;106951;1281;96182;-71
2022/06/30 07:14:59;;;;;;;13.70;10.80;;;;;;;29.54;52.44;99962.61;106924;1280;139122;-71
2022/06/30 07:17:37;;;;;;;13.60;10.80;;;;;;;29.75;52.52;99961.52;106547;1281;110799;-71
2022/06/30 07:20:11;;;;;;;18.40;10.50;;;;;;;30.30;51.82;99958.54;105774;1281;139880;-70
2022/06/30 07:22:43;;;;;;;11.50;9.80;;;;;;;31.37;50.73;99959.77;107004;1280;108063;-70
2022/06/30 07:25:15;;;;;;;13.00;10.30;;;;;;;32.52;48.72;99962.73;106854;1281;138026;-71
2022/06/30 07:28:27;;;;;;;11.20;9.70;;;;;;;33.06;47.81;99955.13;106937;1281;96374;-71
2022/06/30 07:31:25;;;;;;;11.50;10.10;;;;;;;33.60;46.25;99957.60;106913;1281;138748;-71
2022/06/30 07:33:58;;;;;;;11.50;9.70;;;;;;;33.78;45.52;99967.90;106917;1281;108899;-73
2022/06/30 07:36:31;;;;;;;11.40;10.20;;;;;;;33.84;45.27;99981.49;106761;1281;108867;-79
2022/06/30 07:39:03;;;;;;;18.70;15.00;;;;;;;33.89;44.67;99986.86;106226;1281;138102;-72
2022/06/30 07:41:35;;;;;;;12.30;11.00;;;;;;;33.95;44.55;99988.59;106999;1280;95979;-71
2022/06/30 07:44:08;;;;;;;11.20;10.00;;;;;;;33.85;44.46;99990.85;105761;1281;138142;-72
2022/06/30 07:46:41;;;;;;;14.40;10.00;;;;;;;33.94;44.50;99992.15;105759;1281;108351;-71
2022/06/30 07:49:14;;;;;;;11.40;10.30;;;;;;;34.34;44.05;100001.63;106815;1281;138488;-71
2022/06/30 07:51:46;;;;;;;12.80;9.90;;;;;;;34.69;43.17;100008.55;107014;1281;95995;-71
2022/06/30 07:54:42;;;;;;;11.40;9.60;;;;;;;34.98;42.81;100001.16;106065;1281;138797;-70
2022/06/30 07:57:17;;;;;;;14.80;10.20;;;;;;;35.39;42.27;99999.45;105752;1281;112452;-71
2022/06/30 08:00:13;;;;;;;11.30;10.00;;;;;;;36.03;41.45;99998.98;106605;1281;109417;-71
2022/06/30 08:02:46;;;;;;;11.10;9.30;;;;;;;36.69;39.91;100000.33;106743;1281;139871;-71
2022/06/30 08:05:19;;;;;;;13.50;10.20;;;;;;;37.20;39.33;100001.55;107006;1281;98120;-72
2022/06/30 08:07:51;;;;;;;11.80;10.30;;;;;;;37.50;38.56;99996.23;106930;1281;138840;-72
2022/06/30 08:10:23;;;;;;;15.60;9.90;;;;;;;37.28;38.32;100005.52;107047;1280;112350;-72
2022/06/30 08:12:56;;;;;;;10.60;9.50;;;;;;;36.93;38.60;100007.92;106087;1281;138239;-73
2022/06/30 08:15:28;;;;;;;16.20;9.70;;;;;;;36.47;38.70;100015.51;105739;1281;109862;-72
2022/06/30 08:18:04;;;;;;;12.80;10.70;;;;;;;36.00;39.04;100012.27;105718;1281;99081;-72
2022/06/30 08:20:38;;;;;;;10.40;9.20;;;;;;;35.51;39.64;100016.88;106860;1281;138176;-72
2022/06/30 08:23:11;;;;;;;13.00;10.10;;;;;;;35.32;40.06;100016.20;106820;1281;111261;-72
2022/06/30 08:25:43;;;;;;;16.10;13.10;;;;;;;35.39;40.43;100006.89;105891;1281;138340;-71
2022/06/30 08:28:16;;;;;;;16.90;15.10;;;;;;;35.64;40.30;100006.80;105761;1281;109481;-71
2022/06/30 08:30:50;;;;;;;11.30;9.50;;;;;;;36.16;40.12;100005.35;106870;1281;138741;-72
2022/06/30 08:33:22;;;;;;;12.00;9.70;;;;;;;36.89;39.50;100014.20;106927;1280;96158;-72
2022/06/30 08:35:54;;;;;;;11.20;9.30;;;;;;;37.49;38.42;100006.92;106974;1281;112466;-72
2022/06/30 08:38:31;;;;;;;13.60;9.90;;;;;;;37.74;37.62;100001.05;106889;1280;138673;-72
2022/06/30 08:43:54;;;;;;;14.70;10.40;;;;;;;37.74;37.14;99993.48;106929;1280;138559;-73
2022/06/30 08:46:29;;;;;;;11.90;9.30;;;;;;;37.94;37.04;99987.88;107041;1280;96043;-72
2022/06/30 08:49:01;;;;;;;10.80;9.50;;;;;;;38.33;36.83;99989.02;106868;1281;139294;-73
2022/06/30 08:51:36;;;;;;;9.90;8.70;;;;;;;38.71;36.28;99986.02;106956;1280;108823;-72
2022/06/30 08:54:09;;;;;;;14.00;9.00;;;;;;;39.04;35.78;99983.40;106972;1281;108590;-73
2022/06/30 08:56:44;;;;;;;10.60;8.80;;;;;;;39.36;35.66;99980.12;106592;1283;137778;-72
2022/06/30 08:59:17;;;;;;;11.50;9.20;;;;;;;39.68;34.87;99974.35;106967;1281;96131;-76
2022/06/30 09:01:54;;;;;;;11.40;9.90;;;;;;;39.91;34.61;99968.09;106844;1281;137688;-72
2022/06/30 09:04:26;;;;;;;18.50;9.40;;;;;;;39.99;34.29;99971.77;106984;1281;109383;-72
2022/06/30 09:06:59;;;;;;;12.60;8.70;;;;;;;40.16;34.59;99973.58;106866;1281;138901;-71
2022/06/30 09:09:31;;;;;;;11.10;8.40;;;;;;;40.43;34.53;99968.86;106980;1281;96208;-74
2022/06/30 09:12:04;;;;;;;10.50;8.80;;;;;;;40.70;33.94;99968.35;106964;1278;96143;-75
2022/06/30 09:14:41;;;;;;;9.30;8.30;;;;;;;40.84;33.58;99968.56;106821;1281;137754;-75
2022/06/30 09:17:16;;;;;;;12.80;9.10;;;;;;;41.09;33.74;99965.53;106929;1281;108806;-76
2022/06/30 09:20:00;;;;;;;11.90;9.10;;;;;;;41.18;32.87;99966.41;106867;1281;137801;-75
2022/06/30 09:22:35;;;;;;;14.00;9.00;;;;;;;41.23;32.38;99969.48;106965;1281;96619;-75
2022/06/30 09:25:10;;;;;;;13.20;9.10;;;;;;;41.31;31.99;99966.98;106897;1280;138212;-75
2022/06/30 09:27:42;;;;;;;;;;;;;;;41.30;32.02;99966.40;106829;1281;112774;-75
2022/06/30 09:30:18;;;;;;;9.40;8.20;;;;;;;41.40;31.74;99964.47;106956;1281;109263;-75
2022/06/30 09:32:54;;;;;;;12.00;9.20;;;;;;;41.55;32.00;99951.86;106861;1281;138177;-76
2022/06/30 09:35:28;;;;;;;11.00;8.80;;;;;;;41.66;31.57;99947.44;107014;1281;96082;-75
2022/06/30 09:38:03;;;;;;;10.60;9.10;;;;;;;41.70;31.86;99942.45;106089;1281;138801;-75
2022/06/30 09:40:38;;;;;;;10.70;9.70;;;;;;;41.76;31.40;99944.30;107013;1281;111600;-75
2022/06/30 09:43:10;;;;;;;10.50;9.20;;;;;;;41.75;31.16;99941.50;106878;1281;138130;-75
2022/06/30 09:45:44;;;;;;;11.10;9.50;;;;;;;41.53;30.63;99938.31;106191;1281;108947;-75
2022/06/30 09:48:16;;;;;;;11.20;9.80;;;;;;;41.22;31.07;99941.88;105493;1281;292714;-75
2022/06/30 09:51:00;;;;;;;13.60;9.60;;;;;;;40.81;30.81;99939.75;105699;1281;138975;-75
2022/06/30 09:53:33;;;;;;;13.30;10.40;;;;;;;40.57;31.73;99934.52;105737;1281;112744;-75
2022/06/30 09:56:15;;;;;;;12.00;9.30;;;;;;;40.49;31.63;99931.56;105630;1281;138073;-74
2022/06/30 09:58:48;;;;;;;11.10;10.00;;;;;;;40.40;32.02;99927.69;106849;1281;108944;-76
2022/06/30 10:01:20;;;;;;;16.10;10.20;;;;;;;40.20;32.46;99928.34;106401;1281;140345;-76
2022/06/30 10:04:00;;;;;;;11.90;9.30;;;;;;;40.12;32.72;99929.05;107041;1281;95902;-75
2022/06/30 10:06:32;;;;;;;11.90;9.70;;;;;;;40.21;32.48;99931.27;107026;1280;112597;-75
2022/06/30 10:09:04;;;;;;;11.60;9.60;;;;;;;40.18;31.89;99929.14;107028;1280;109207;-75
2022/06/30 10:11:37;;;;;;;12.60;9.90;;;;;;;40.04;32.09;99925.48;107003;1281;109357;-75
2022/06/30 10:14:11;;;;;;;11.20;9.90;;;;;;;39.93;32.13;99921.14;106855;1280;138493;-75
2022/06/30 10:16:44;;;;;;;12.40;10.30;;;;;;;39.83;31.94;99915.73;106833;1281;96095;-74
2022/06/30 10:19:17;;;;;;;11.00;9.50;;;;;;;39.66;32.28;99910.27;106900;1280;138810;-75
2022/06/30 10:21:50;;;;;;;13.70;9.30;;;;;;;39.53;32.09;99913.36;107025;1281;108687;-76
2022/06/30 10:24:24;;;;;;;15.30;9.60;;;;;;;39.34;32.01;99908.05;107018;1280;107838;-75
2022/06/30 10:27:13;;;;;;;14.50;10.10;;;;;;;39.13;32.56;99909.16;106930;1280;137798;-75
2022/06/30 10:29:50;;;;;;;11.20;9.50;;;;;;;38.88;32.52;99905.23;107019;1280;95838;-76
2022/06/30 10:32:42;;;;;;;20.30;10.10;;;;;;;38.73;32.83;99905.45;106922;1280;138638;-76
2022/06/30 10:35:21;;;;;;;20.10;10.10;;;;;;;38.67;33.42;99904.08;107035;1281;107812;-75
2022/06/30 10:38:05;;;;;;;13.30;11.00;;;;;;;38.73;33.47;99898.67;106762;1281;138480;-76
2022/06/30 10:40:53;;;;;;;11.00;9.90;;;;;;;38.59;33.44;99896.17;107018;1281;96246;-75
2022/06/30 10:43:25;;;;;;;14.80;9.70;;;;;;;38.56;33.76;99897.90;106050;1281;137671;-74
2022/06/30 10:46:02;;;;;;;11.70;9.40;;;;;;;38.58;33.60;99894.68;106963;1280;112496;-74
2022/06/30 10:48:53;;;;;;;11.30;9.90;;;;;;;38.58;33.50;99894.52;106992;1281;110129;-75
2022/06/30 10:51:27;;;;;;;13.70;10.40;;;;;;;38.36;33.21;99888.90;106863;1281;108884;-75
2022/06/30 10:53:59;;;;;;;15.40;10.00;;;;;;;38.01;32.70;99888.18;106748;1280;96101;-75
2022/06/30 10:56:58;;;;;;;12.50;9.30;;;;;;;37.41;32.89;99889.89;105660;1281;138108;-75
2022/06/30 10:59:31;;;;;;;13.00;9.70;;;;;;;36.84;33.41;99886.50;106687;1279;111929;-74
2022/06/30 11:02:27;;;;;;;16.40;9.90;;;;;;;36.49;34.40;99890.84;106905;1280;138790;-74
2022/06/30 11:05:24;;;;;;;11.90;10.00;;;;;;;36.56;34.80;99882.96;107011;1281;107302;-75
2022/06/30 11:07:57;;;;;;;12.50;11.20;;;;;;;36.59;34.80;99876.08;106895;1280;139070;-75
2022/06/30 11:10:29;;;;;;;14.00;10.20;;;;;;;36.48;34.55;99879.43;107006;1281;96033;-74
2022/06/30 11:13:10;;;;;;;11.80;10.50;;;;;;;36.14;34.57;99883.45;106924;1280;138004;-74
2022/06/30 11:16:01;;;;;;;11.50;10.30;;;;;;;35.75;34.86;99877.91;107013;1280;107889;-76
2022/06/30 11:18:36;;;;;;;13.50;10.90;;;;;;;35.48;35.30;99877.41;106974;1281;108873;-75
2022/06/30 11:21:08;;;;;;;14.60;11.00;;;;;;;35.34;35.88;99869.89;107020;1280;96213;-74
2022/06/30 11:23:44;;;;;;;15.30;11.10;;;;;;;35.38;36.12;99868.61;107024;1281;95931;-74
2022/06/30 11:29:16;;;;;;;14.10;10.20;;;;;;;35.35;35.97;99866.27;106999;1281;108415;-74
2022/06/30 11:31:48;;;;;;;12.10;10.70;;;;;;;35.13;36.26;99860.94;106919;1280;138199;-74
2022/06/30 11:34:24;;;;;;;18.90;10.40;;;;;;;34.83;36.75;99858.71;106999;1279;95802;-74
2022/06/30 11:36:57;;;;;;;12.20;10.20;;;;;;;34.80;37.02;99858.38;106967;1280;138936;-75
2022/06/30 11:39:29;;;;;;;12.80;10.20;;;;;;;34.92;37.11;99851.20;106849;1280;112439;-75
2022/06/30 11:42:07;;;;;;;14.90;11.00;;;;;;;35.05;36.96;99846.03;105872;1281;108841;-76
2022/06/30 11:44:41;;;;;;;15.40;11.10;;;;;;;35.12;37.23;99847.10;106918;1280;138837;-76
2022/06/30 11:47:16;;;;;;;11.60;10.40;;;;;;;35.26;36.98;99846.81;107012;1281;96320;-76
2022/06/30 11:49:52;;;;;;;13.70;10.20;;;;;;;35.30;36.19;99850.89;106800;1279;138789;-76
2022/06/30 11:52:33;;;;;;;12.20;11.00;;;;;;;35.25;36.64;99852.16;107034;1280;112660;-76